createdAt,value
2023-03-04T00:00:08.492Z,-0.18
2023-03-04T00:02:57.090Z,-0.16
2023-03-04T00:05:25.452Z,-0.15
2023-03-04T00:07:54.020Z,-0.15
2023-03-04T00:10:22.544Z,-0.13
2023-03-04T00:12:51.206Z,-0.13
2023-03-04T00:15:19.763Z,-0.12
2023-03-04T00:17:48.175Z,-0.11
2023-03-04T00:20:17.007Z,-0.10
2023-03-04T00:22:45.563Z,-0.07
2023-03-04T00:25:13.914Z,-0.07
2023-03-04T00:27:42.456Z,-0.05
2023-03-04T00:30:12.517Z,-0.04
2023-03-04T00:32:41.010Z,-0.03
2023-03-04T00:35:21.097Z,-0.01
2023-03-04T00:37:50.529Z,-0.02
2023-03-04T00:40:35.496Z,0.02
2023-03-04T00:43:09.190Z,0.03
2023-03-04T00:45:37.884Z,0.03
2023-03-04T00:48:14.037Z,0.04
2023-03-04T00:50:42.621Z,0.05
2023-03-04T00:53:11.108Z,0.06
2023-03-04T00:55:39.446Z,0.07
2023-03-04T00:58:07.854Z,0.07
2023-03-04T01:00:36.344Z,0.07
2023-03-04T01:03:04.845Z,0.08
2023-03-04T01:05:35.333Z,0.08
2023-03-04T01:08:04.709Z,0.08
2023-03-04T01:10:33.506Z,0.09
2023-03-04T01:13:01.906Z,0.09
2023-03-04T01:15:30.411Z,0.09
2023-03-04T01:17:59.124Z,0.10
2023-03-04T01:20:27.519Z,0.11
2023-03-04T01:22:55.890Z,0.12
2023-03-04T01:25:24.386Z,0.12
2023-03-04T01:27:52.758Z,0.12
2023-03-04T01:30:21.462Z,0.11
2023-03-04T01:32:50.313Z,0.10
2023-03-04T01:35:18.973Z,0.09
2023-03-04T01:37:47.397Z,0.09
2023-03-04T01:40:15.970Z,0.07
2023-03-04T01:42:44.955Z,0.06
2023-03-04T01:45:16.208Z,0.06
2023-03-04T01:47:48.542Z,0.05
2023-03-04T01:50:21.808Z,0.02
2023-03-04T01:52:50.523Z,0.01
2023-03-04T01:55:20.815Z,0.02
2023-03-04T01:57:50.515Z,0.02
2023-03-04T02:00:23.345Z,0.00
2023-03-04T02:02:54.022Z,-0.01
2023-03-04T02:05:22.846Z,-0.02
2023-03-04T02:07:52.208Z,-0.03
2023-03-04T02:10:21.149Z,-0.04
2023-03-04T02:12:50.245Z,-0.04
2023-03-04T02:15:18.952Z,-0.06
2023-03-04T02:17:49.446Z,-0.06
2023-03-04T02:20:25.667Z,-0.06
2023-03-04T02:23:03.777Z,-0.05
2023-03-04T02:25:37.880Z,-0.06
2023-03-04T02:28:05.431Z,-0.04
2023-03-04T02:30:34.542Z,-0.04
2023-03-04T02:33:02.896Z,-0.04
2023-03-04T02:35:31.532Z,-0.04
2023-03-04T02:37:59.944Z,-0.03
2023-03-04T02:40:30.901Z,-0.03
2023-03-04T02:43:00.610Z,-0.02
2023-03-04T02:45:35.117Z,-0.02
2023-03-04T02:48:04.013Z,-0.02
2023-03-04T02:50:35.820Z,-0.01
2023-03-04T02:53:04.673Z,-0.01
2023-03-04T02:55:33.242Z,0.00
2023-03-04T02:58:01.760Z,0.02
2023-03-04T03:00:30.878Z,0.02
2023-03-04T03:02:59.422Z,0.05
2023-03-04T03:05:29.793Z,0.07
2023-03-04T03:07:58.178Z,0.08
2023-03-04T03:10:26.824Z,0.10
2023-03-04T03:12:55.166Z,0.13
2023-03-04T03:15:23.555Z,0.15
2023-03-04T03:17:52.634Z,0.18
2023-03-04T03:20:21.195Z,0.21
2023-03-04T03:22:49.600Z,0.23
2023-03-04T03:25:18.684Z,0.25
2023-03-04T03:27:47.059Z,0.26
2023-03-04T03:30:15.879Z,0.28
2023-03-04T03:32:44.806Z,0.31
2023-03-04T03:35:13.574Z,0.33
2023-03-04T03:37:41.921Z,0.34
2023-03-04T03:40:13.449Z,0.35
2023-03-04T03:42:41.890Z,0.38
2023-03-04T03:45:12.174Z,0.40
2023-03-04T03:47:40.484Z,0.41
2023-03-04T03:50:10.801Z,0.44
2023-03-04T03:52:39.470Z,0.45
2023-03-04T03:55:09.552Z,0.48
2023-03-04T03:57:37.962Z,0.50
2023-03-04T04:00:10.108Z,0.53
2023-03-04T04:02:38.678Z,0.54
2023-03-04T04:05:09.846Z,0.56
2023-03-04T04:07:38.342Z,0.58
2023-03-04T04:10:08.024Z,0.60
2023-03-04T04:12:36.365Z,0.61
2023-03-04T04:15:07.096Z,0.63
2023-03-04T04:17:35.659Z,0.64
2023-03-04T04:20:05.081Z,0.66
2023-03-04T04:22:33.460Z,0.67
2023-03-04T04:25:02.121Z,0.69
2023-03-04T04:27:30.486Z,0.70
2023-03-04T04:29:58.825Z,0.72
2023-03-04T04:32:27.437Z,0.74
2023-03-04T04:34:55.864Z,0.75
2023-03-04T04:37:24.225Z,0.77
2023-03-04T04:39:54.772Z,0.78
2023-03-04T04:42:23.325Z,0.80
2023-03-04T04:44:52.080Z,0.81
2023-03-04T04:47:20.775Z,0.83
2023-03-04T04:49:49.107Z,0.85
2023-03-04T04:52:17.479Z,0.87
2023-03-04T04:54:46.049Z,0.88
2023-03-04T04:57:14.363Z,0.90
2023-03-04T04:59:42.892Z,0.92
2023-03-04T05:02:11.498Z,0.93
2023-03-04T05:04:39.888Z,0.95
2023-03-04T05:07:08.217Z,0.96
2023-03-04T05:09:36.658Z,0.97
2023-03-04T05:12:05.526Z,0.98
2023-03-04T05:14:33.906Z,1.00
2023-03-04T05:17:02.373Z,1.01
2023-03-04T05:19:30.728Z,1.01
2023-03-04T05:21:59.083Z,1.00
2023-03-04T05:24:27.795Z,1.02
2023-03-04T05:26:56.160Z,1.02
2023-03-04T05:29:24.579Z,1.03
2023-03-04T05:31:53.054Z,1.03
2023-03-04T05:34:21.386Z,1.03
2023-03-04T05:36:49.756Z,1.03
2023-03-04T05:39:18.596Z,1.03
2023-03-04T05:41:47.194Z,1.02
2023-03-04T05:44:15.675Z,1.03
2023-03-04T05:46:44.115Z,1.03
2023-03-04T05:49:12.410Z,1.04
2023-03-04T05:51:40.736Z,1.04
2023-03-04T05:54:09.264Z,1.05
2023-03-04T05:56:37.701Z,1.04
2023-03-04T05:59:06.262Z,1.05
2023-03-04T06:01:34.772Z,1.05
2023-03-04T06:04:03.201Z,1.06
2023-03-04T06:06:31.646Z,1.07
2023-03-04T06:09:00.672Z,1.07
2023-03-04T06:11:29.080Z,1.08
2023-03-04T06:13:57.740Z,1.09
2023-03-04T06:16:26.535Z,1.10
2023-03-04T06:18:54.959Z,1.10
2023-03-04T06:21:23.316Z,1.12
2023-03-04T06:23:51.655Z,1.13
2023-03-04T06:26:20.003Z,1.13
2023-03-04T06:28:48.384Z,1.14
2023-03-04T06:31:17.170Z,1.15
2023-03-04T06:33:45.974Z,1.16
2023-03-04T06:36:14.446Z,1.16
2023-03-04T06:38:42.817Z,1.18
2023-03-04T06:41:12.583Z,1.19
2023-03-04T06:43:41.515Z,1.19
2023-03-04T06:46:10.005Z,1.19
2023-03-04T06:48:38.419Z,1.19
2023-03-04T06:51:08.482Z,1.19
2023-03-04T06:53:37.127Z,1.20
2023-03-04T06:56:06.822Z,1.19
2023-03-04T06:58:35.834Z,1.19
2023-03-04T07:01:13.510Z,1.21
2023-03-04T07:03:42.434Z,1.21
2023-03-04T07:06:11.646Z,1.21
2023-03-04T07:08:40.379Z,1.21
2023-03-04T07:11:09.082Z,1.21
2023-03-04T07:13:37.893Z,1.22
2023-03-04T07:16:07.871Z,1.24
2023-03-04T07:18:37.150Z,1.24
2023-03-04T07:21:06.691Z,1.26
2023-03-04T07:23:35.937Z,1.28
2023-03-04T07:26:05.307Z,1.29
2023-03-04T07:28:33.791Z,1.31
2023-03-04T07:31:10.261Z,1.31
2023-03-04T07:33:38.941Z,1.32
2023-03-04T07:36:08.213Z,1.32
2023-03-04T07:38:36.801Z,1.33
2023-03-04T07:41:05.705Z,1.34
2023-03-04T07:43:34.095Z,1.35
2023-03-04T07:46:02.960Z,1.37
2023-03-04T07:48:31.481Z,1.38
2023-03-04T07:51:08.930Z,1.39
2023-03-04T07:53:38.995Z,1.39
2023-03-04T07:56:10.363Z,1.40
2023-03-04T07:58:38.905Z,1.41
2023-03-04T08:01:11.284Z,1.42
2023-03-04T08:03:39.775Z,1.43
2023-03-04T08:06:10.303Z,1.45
2023-03-04T08:08:38.818Z,1.47
2023-03-04T08:11:08.606Z,1.48
2023-03-04T08:13:37.080Z,1.50
2023-03-04T08:16:07.491Z,1.52
2023-03-04T08:18:35.901Z,1.54
2023-03-04T08:21:09.678Z,1.54
2023-03-04T08:23:38.421Z,1.56
2023-03-04T08:26:08.424Z,1.57
2023-03-04T08:28:37.235Z,1.59
2023-03-04T08:31:06.022Z,1.60
2023-03-04T08:33:35.069Z,1.61
2023-03-04T08:36:03.766Z,1.62
2023-03-04T08:38:32.172Z,1.63
2023-03-04T08:41:00.864Z,1.73
2023-03-04T08:43:29.719Z,1.76
2023-03-04T08:45:58.215Z,1.76
2023-03-04T08:48:26.576Z,1.75
2023-03-04T08:50:55.045Z,1.73
2023-03-04T08:53:23.481Z,1.70
2023-03-04T08:55:53.027Z,1.67
2023-03-04T08:58:21.347Z,1.67
2023-03-04T09:00:50.958Z,1.66
2023-03-04T09:03:21.154Z,1.64
2023-03-04T09:05:49.642Z,1.65
2023-03-04T09:08:18.133Z,1.65
2023-03-04T09:10:47.366Z,1.65
2023-03-04T09:13:16.296Z,1.66
2023-03-04T09:15:48.567Z,1.68
2023-03-04T09:18:18.132Z,1.70
2023-03-04T09:20:46.643Z,1.72
2023-03-04T09:23:15.511Z,1.78
2023-03-04T09:25:45.866Z,1.82
2023-03-04T09:28:15.339Z,1.85
2023-03-04T09:30:44.084Z,1.87
2023-03-04T09:33:12.958Z,1.87
2023-03-04T09:35:41.417Z,1.87
2023-03-04T09:38:10.285Z,1.87
2023-03-04T09:40:41.799Z,1.87
2023-03-04T09:43:18.386Z,1.88
2023-03-04T09:45:49.960Z,1.88
2023-03-04T09:48:22.312Z,1.88
2023-03-04T09:50:59.715Z,1.90
2023-03-04T09:53:36.949Z,1.89
2023-03-04T09:56:06.404Z,1.90
2023-03-04T09:58:44.113Z,1.91
2023-03-04T10:01:20.205Z,1.91
2023-03-04T10:03:53.127Z,1.92
2023-03-04T10:06:22.810Z,1.93
2023-03-04T10:08:55.465Z,1.93
2023-03-04T10:11:27.666Z,1.93
2023-03-04T10:14:02.973Z,1.95
2023-03-04T10:16:35.340Z,1.95
2023-03-04T10:19:18.907Z,1.97
2023-03-04T10:21:50.641Z,1.99
2023-03-04T10:24:22.492Z,2.00
2023-03-04T10:26:53.021Z,2.03
2023-03-04T10:29:24.226Z,2.05
2023-03-04T10:31:55.296Z,2.09
2023-03-04T10:34:24.583Z,2.13
2023-03-04T10:36:59.936Z,2.18
2023-03-04T10:39:31.056Z,2.23
2023-03-04T10:42:01.935Z,2.27
2023-03-04T10:44:32.213Z,2.30
2023-03-04T10:47:00.796Z,2.32
2023-03-04T10:49:29.797Z,2.33
2023-03-04T10:52:04.075Z,2.33
2023-03-04T10:54:36.944Z,2.31
2023-03-04T10:57:11.748Z,2.30
2023-03-04T10:59:45.379Z,2.31
2023-03-04T11:02:32.074Z,2.31
2023-03-04T11:05:16.237Z,2.32
2023-03-04T11:07:54.973Z,2.33
2023-03-04T11:10:27.627Z,2.31
2023-03-04T11:13:00.501Z,2.30
2023-03-04T11:15:30.750Z,2.29
2023-03-04T11:18:02.376Z,2.30
2023-03-04T11:20:33.082Z,2.31
2023-03-04T11:23:04.759Z,2.33
2023-03-04T11:25:35.459Z,2.41
2023-03-04T11:28:06.502Z,2.41
2023-03-04T11:30:39.936Z,2.38
2023-03-04T11:33:24.095Z,2.36
2023-03-04T11:35:59.315Z,2.33
2023-03-04T11:38:33.119Z,2.31
2023-03-04T11:41:06.472Z,2.32
2023-03-04T11:43:38.127Z,2.34
2023-03-04T11:46:28.195Z,2.35
2023-03-04T11:49:05.707Z,2.38
2023-03-04T11:51:38.015Z,2.43
2023-03-04T11:54:17.369Z,2.46
2023-03-04T11:56:47.642Z,2.48
2023-03-04T11:59:29.826Z,2.49
2023-03-04T12:02:16.312Z,2.49
2023-03-04T12:05:10.863Z,2.50
2023-03-04T12:07:52.099Z,2.53
2023-03-04T12:10:26.638Z,2.55
2023-03-04T12:13:35.596Z,2.56
2023-03-04T12:16:15.178Z,2.63
2023-03-04T12:18:56.297Z,2.64
2023-03-04T12:21:38.809Z,2.66
2023-03-04T12:24:21.395Z,2.67
2023-03-04T12:26:52.362Z,2.63
2023-03-04T12:29:28.328Z,2.60
2023-03-04T12:32:03.804Z,2.58
2023-03-04T12:34:39.936Z,2.57
2023-03-04T12:37:29.730Z,2.55
2023-03-04T12:40:11.704Z,2.55
2023-03-04T12:42:54.880Z,2.60
2023-03-04T12:45:28.023Z,2.64
2023-03-04T12:48:02.352Z,2.69
2023-03-04T12:50:32.356Z,2.75
2023-03-04T12:53:09.411Z,2.82
2023-03-04T12:55:40.420Z,2.89
2023-03-04T12:58:15.691Z,2.96
2023-03-04T13:00:49.950Z,3.02
2023-03-04T13:03:23.591Z,3.10
2023-03-04T13:06:05.730Z,3.14
2023-03-04T13:08:39.935Z,3.18
2023-03-04T13:11:38.959Z,3.21
2023-03-04T13:14:08.895Z,3.28
2023-03-04T13:16:39.979Z,3.36
2023-03-04T13:19:40.408Z,3.49
2023-03-04T13:22:41.703Z,3.69
2023-03-04T13:25:34.087Z,3.82
2023-03-04T13:28:18.202Z,3.91
2023-03-04T13:31:11.130Z,3.92
2023-03-04T13:33:58.268Z,3.95
2023-03-04T13:36:56.592Z,4.03
2023-03-04T13:39:39.257Z,4.03
2023-03-04T13:42:38.247Z,3.99
2023-03-04T13:45:32.161Z,3.85
2023-03-04T13:48:01.318Z,3.33
2023-03-04T13:50:41.900Z,2.66
2023-03-04T13:53:30.826Z,2.14
2023-03-04T13:56:23.453Z,1.83
2023-03-04T13:59:00.703Z,1.62
2023-03-04T14:01:31.351Z,1.52
2023-03-04T14:04:00.531Z,1.48
2023-03-04T14:06:30.039Z,1.46
2023-03-04T14:08:59.145Z,1.46
2023-03-04T14:11:34.360Z,1.49
2023-03-04T14:14:06.743Z,1.57
2023-03-04T14:16:38.955Z,1.69
2023-03-04T14:19:14.058Z,1.79
2023-03-04T14:21:46.092Z,1.89
2023-03-04T14:24:16.775Z,1.98
2023-03-04T14:26:45.542Z,2.07
2023-03-04T14:29:25.100Z,2.15
2023-03-04T14:31:54.062Z,2.23
2023-03-04T14:34:29.008Z,2.29
2023-03-04T14:36:57.527Z,2.35
2023-03-04T14:39:27.197Z,2.40
2023-03-04T14:41:57.924Z,2.50
2023-03-04T14:44:35.036Z,2.58
2023-03-04T14:47:10.640Z,2.65
2023-03-04T14:49:39.927Z,2.74
2023-03-04T14:52:27.877Z,2.83
2023-03-04T14:55:16.692Z,2.91
2023-03-04T14:57:47.125Z,3.01
2023-03-04T15:00:23.437Z,3.08
2023-03-04T15:02:53.710Z,3.15
2023-03-04T15:05:27.180Z,3.17
2023-03-04T15:07:58.010Z,3.18
2023-03-04T15:10:30.336Z,3.16
2023-03-04T15:13:01.008Z,3.16
2023-03-04T15:15:40.069Z,3.16
2023-03-04T15:18:25.538Z,3.15
2023-03-04T15:20:59.133Z,3.14
2023-03-04T15:23:29.710Z,3.12
2023-03-04T15:25:59.852Z,3.10
2023-03-04T15:28:32.377Z,3.07
2023-03-04T15:31:01.334Z,3.03
2023-03-04T15:33:29.848Z,3.00
2023-03-04T15:36:00.153Z,2.99
2023-03-04T15:38:30.331Z,2.94
2023-03-04T15:40:59.240Z,2.85
2023-03-04T15:43:27.705Z,2.75
2023-03-04T15:45:56.536Z,2.67
2023-03-04T15:48:25.012Z,2.49
2023-03-04T15:50:57.451Z,2.38
2023-03-04T15:53:31.809Z,2.24
2023-03-04T15:56:01.564Z,2.12
2023-03-04T15:58:34.542Z,2.03
2023-03-04T16:01:04.563Z,1.92
2023-03-04T16:03:32.986Z,1.83
2023-03-04T16:06:01.387Z,1.78
2023-03-04T16:08:29.899Z,1.71
2023-03-04T16:10:58.265Z,1.64
2023-03-04T16:13:26.612Z,1.55
2023-03-04T16:15:54.983Z,1.48
2023-03-04T16:18:24.000Z,1.39
2023-03-04T16:20:52.526Z,1.34
2023-03-04T16:23:22.028Z,1.31
2023-03-04T16:25:52.549Z,1.26
2023-03-04T16:28:21.015Z,1.20
2023-03-04T16:30:49.960Z,1.14
2023-03-04T16:33:18.545Z,1.09
2023-03-04T16:35:47.223Z,1.06
2023-03-04T16:38:22.322Z,1.03
2023-03-04T16:40:50.705Z,0.95
2023-03-04T16:43:19.087Z,0.89
2023-03-04T16:45:48.251Z,0.86
2023-03-04T16:48:17.226Z,0.83
2023-03-04T16:50:45.668Z,0.83
2023-03-04T16:53:26.873Z,0.81
2023-03-04T16:55:55.339Z,0.78
2023-03-04T16:58:23.723Z,0.77
2023-03-04T17:00:52.133Z,0.73
2023-03-04T17:03:20.635Z,0.68
2023-03-04T17:05:49.185Z,0.63
2023-03-04T17:08:17.639Z,0.58
2023-03-04T17:10:46.234Z,0.52
2023-03-04T17:13:14.943Z,0.45
2023-03-04T17:15:44.900Z,0.39
2023-03-04T17:18:13.412Z,0.33
2023-03-04T17:20:41.865Z,0.27
2023-03-04T17:23:10.397Z,0.23
2023-03-04T17:25:38.791Z,0.20
2023-03-04T17:28:07.255Z,0.16
2023-03-04T17:30:35.686Z,0.13
2023-03-04T17:33:04.098Z,0.08
2023-03-04T17:35:32.608Z,0.05
2023-03-04T17:38:01.062Z,0.03
2023-03-04T17:40:29.464Z,0.01
2023-03-04T17:42:58.091Z,-0.02
2023-03-04T17:45:26.560Z,-0.03
2023-03-04T17:47:54.856Z,-0.05
2023-03-04T17:50:23.243Z,-0.08
2023-03-04T17:52:51.566Z,-0.11
2023-03-04T17:55:19.898Z,-0.12
2023-03-04T17:57:48.394Z,-0.14
2023-03-04T18:00:19.299Z,-0.15
2023-03-04T18:02:47.954Z,-0.20
2023-03-04T18:05:16.286Z,-0.23
2023-03-04T18:07:44.710Z,-0.25
2023-03-04T18:10:13.375Z,-0.29
2023-03-04T18:12:41.686Z,-0.33
2023-03-04T18:15:11.276Z,-0.35
2023-03-04T18:17:42.021Z,-0.36
2023-03-04T18:20:12.636Z,-0.37
2023-03-04T18:22:41.147Z,-0.40
2023-03-04T18:25:11.983Z,-0.43
2023-03-04T18:27:41.269Z,-0.47
2023-03-04T18:30:13.297Z,-0.50
2023-03-04T18:32:51.317Z,-0.52
2023-03-04T18:35:21.006Z,-0.53
2023-03-04T18:37:49.622Z,-0.57
2023-03-04T18:40:18.865Z,-0.60
2023-03-04T18:42:47.599Z,-0.62
2023-03-04T18:45:16.687Z,-0.62
2023-03-04T18:47:47.040Z,-0.62
2023-03-04T18:50:16.361Z,-0.65
2023-03-04T18:52:45.054Z,-0.67
2023-03-04T18:55:13.575Z,-0.68
2023-03-04T18:57:45.317Z,-0.71
2023-03-04T19:00:16.230Z,-0.73
2023-03-04T19:02:48.860Z,-0.76
2023-03-04T19:05:20.565Z,-0.79
2023-03-04T19:07:49.197Z,-0.82
2023-03-04T19:10:18.119Z,-0.84
2023-03-04T19:12:46.525Z,-0.85
2023-03-04T19:15:15.159Z,-0.85
2023-03-04T19:17:45.076Z,-0.85
2023-03-04T19:20:14.925Z,-0.86
2023-03-04T19:22:43.832Z,-0.91
2023-03-04T19:25:12.508Z,-0.95
2023-03-04T19:27:41.112Z,-0.98
2023-03-04T19:30:12.012Z,-1.02
2023-03-04T19:32:40.473Z,-1.04
2023-03-04T19:35:09.938Z,-1.05
2023-03-04T19:37:38.376Z,-1.06
2023-03-04T19:40:10.026Z,-1.07
2023-03-04T19:42:38.677Z,-1.08
2023-03-04T19:45:09.153Z,-1.11
2023-03-04T19:47:37.935Z,-1.13
2023-03-04T19:50:08.725Z,-1.15
2023-03-04T19:52:37.618Z,-1.18
2023-03-04T19:55:07.187Z,-1.20
2023-03-04T19:57:35.580Z,-1.23
2023-03-04T20:00:05.162Z,-1.24
2023-03-04T20:02:34.228Z,-1.27
2023-03-04T20:05:03.363Z,-1.29
2023-03-04T20:07:31.758Z,-1.30
2023-03-04T20:10:00.589Z,-1.32
2023-03-04T20:12:30.738Z,-1.33
2023-03-04T20:14:59.263Z,-1.36
2023-03-04T20:17:27.648Z,-1.38
2023-03-04T20:19:56.372Z,-1.40
2023-03-04T20:22:24.844Z,-1.41
2023-03-04T20:24:54.331Z,-1.41
2023-03-04T20:27:23.148Z,-1.41
2023-03-04T20:29:52.301Z,-1.42
2023-03-04T20:32:20.785Z,-1.43
2023-03-04T20:34:53.509Z,-1.45
2023-03-04T20:37:22.093Z,-1.46
2023-03-04T20:39:50.580Z,-1.48
2023-03-04T20:42:18.967Z,-1.50
2023-03-04T20:44:47.454Z,-1.53
2023-03-04T20:47:15.843Z,-1.54
2023-03-04T20:49:44.537Z,-1.56
2023-03-04T20:52:13.906Z,-1.58
2023-03-04T20:54:42.266Z,-1.59
2023-03-04T20:57:11.418Z,-1.60
2023-03-04T20:59:40.534Z,-1.61
2023-03-04T21:02:11.448Z,-1.63
2023-03-04T21:04:40.064Z,-1.66
2023-03-04T21:07:08.518Z,-1.68
2023-03-04T21:09:36.907Z,-1.69
2023-03-04T21:12:06.174Z,-1.70
2023-03-04T21:14:34.549Z,-1.72
2023-03-04T21:17:04.360Z,-1.73
2023-03-04T21:19:35.896Z,-1.74
2023-03-04T21:22:04.683Z,-1.75
2023-03-04T21:24:34.621Z,-1.76
2023-03-04T21:27:03.982Z,-1.77
2023-03-04T21:29:32.600Z,-1.79
2023-03-04T21:32:20.694Z,-1.81
2023-03-04T21:34:51.399Z,-1.81
2023-03-04T21:37:20.080Z,-1.82
2023-03-04T21:39:48.482Z,-1.82
2023-03-04T21:42:16.971Z,-1.83
2023-03-04T21:44:49.701Z,-1.84
2023-03-04T21:47:19.215Z,-1.85
2023-03-04T21:49:47.846Z,-1.86
2023-03-04T21:52:16.727Z,-1.88
2023-03-04T21:54:45.307Z,-1.88
2023-03-04T21:57:13.927Z,-1.89
2023-03-04T21:59:42.336Z,-1.91
2023-03-04T22:02:14.850Z,-1.92
2023-03-04T22:04:43.412Z,-1.93
2023-03-04T22:07:12.240Z,-1.94
2023-03-04T22:09:40.833Z,-1.96
2023-03-04T22:12:09.468Z,-1.96
2023-03-04T22:14:38.286Z,-1.98
2023-03-04T22:17:07.040Z,-1.99
2023-03-04T22:19:35.473Z,-2.00
2023-03-04T22:22:04.057Z,-2.01
2023-03-04T22:24:32.579Z,-2.01
2023-03-04T22:27:00.962Z,-2.02
2023-03-04T22:29:29.348Z,-2.02
2023-03-04T22:31:58.121Z,-2.02
2023-03-04T22:34:26.703Z,-2.02
2023-03-04T22:36:55.007Z,-2.02
2023-03-04T22:39:23.460Z,-2.02
2023-03-04T22:41:51.920Z,-2.03
2023-03-04T22:44:20.378Z,-2.03
2023-03-04T22:46:48.823Z,-2.03
2023-03-04T22:49:17.313Z,-2.02
2023-03-04T22:51:46.126Z,-2.01
2023-03-04T22:54:15.724Z,-2.02
2023-03-04T22:56:44.164Z,-2.02
2023-03-04T22:59:12.691Z,-2.03
2023-03-04T23:01:41.485Z,-2.02
2023-03-04T23:04:09.913Z,-2.02
2023-03-04T23:06:38.380Z,-2.03
2023-03-04T23:09:07.369Z,-2.04
2023-03-04T23:11:36.464Z,-2.05
2023-03-04T23:14:07.399Z,-2.05
2023-03-04T23:16:38.811Z,-2.04
2023-03-04T23:19:07.520Z,-2.05
2023-03-04T23:21:36.604Z,-2.05
2023-03-04T23:24:06.720Z,-2.06
2023-03-04T23:26:38.415Z,-2.05
2023-03-04T23:29:08.659Z,-2.05
2023-03-04T23:31:37.594Z,-2.05
2023-03-04T23:34:07.182Z,-2.05
2023-03-04T23:36:37.136Z,-2.04
2023-03-04T23:39:07.423Z,-2.02
2023-03-04T23:41:36.295Z,-2.00
2023-03-04T23:44:04.790Z,-1.97
2023-03-04T23:46:33.211Z,-1.94
2023-03-04T23:49:01.847Z,-1.92
2023-03-04T23:51:30.913Z,-1.91
2023-03-04T23:54:00.315Z,-1.91
2023-03-04T23:56:30.224Z,-1.91
2023-03-04T23:58:59.589Z,-1.92
